Decoded Metar for LPMA (FUNCHAL/MADEIRA in PORTUGAL) (IATA:N/A) | Meteo·Mobile Aviation Weather
aviador You're here:

LPMA Decoded Metar

FUNCHAL/MADEIRA in PORTUGAL
Report Time2018-08-14 10:30:00
UTC Time2018-08-14 11:01:41
Flight Rules vfr VFR
Wind030° at 16 kt
W.Decomp.*RWY 05: 15.5 kt HW 3.9 kt LCW
W.Rank030° ranks 3
Current wind is above 030° avg. (11.0)
Visibility9999 m
Phenomena:N/A
Clouds:Scattered 016 Hf
Scattered 030 Hf
Expected CloudBase > 2,400 ft AGL from Temp-Dew spread
CeilingNone
Temp24°C (ISA +9)
Dew Point18°C (69% RH)
AAT21.0°C
QNH1021 hPa
Density Alt1,270 ft
Elevation180 ft
Report Wrong Elevation
Raw Report
LPMA 141030Z 03016KT 9999 SCT016 SCT030 24/18 Q1021=

Extra information for LPMA:More info

Metar Taf Metar & Taf Last 4 Metars F.Rules Stats Wind Profile Meteogram Temp Stats Airport Information Weather charts Add Link Nearby VenuesMetar ALERT Operation Metar Decoded Social comments